Time,TemperatureF,DewpointF,PressureIn,WindDirection,WindDirectionDegrees,WindSpeedMPH,WindSpeedGustMPH,Humidity,HourlyPrecipIn,Conditions,Clouds,dailyrainin,SoftwareType,DateUTC
2013-08-30 00:43:00,83.0,50.0,29.89,NE,50,2.0,-999.0,32,0.00,,,-99.99,,2013-08-30 07:43:00,
2013-08-30 00:53:00,83.0,50.0,29.89,NE,50,2.0,-999.0,32,0.00,,,-99.99,,2013-08-30 07:53:00,
2013-08-30 07:52:00,81.0,61.0,29.90,ESE,110,1.0,-999.0,51,0.00,,,-99.99,,2013-08-30 14:52:00,
2013-08-30 08:43:00,80.0,63.0,29.92,ESE,110,2.0,-999.0,56,0.00,,,-99.99,,2013-08-30 15:43:00,
2013-08-30 08:54:00,80.0,63.0,29.92,ESE,110,2.0,-999.0,56,0.00,,,-99.99,,2013-08-30 15:54:00,
2013-08-30 09:43:00,83.0,64.0,29.93,SSE,150,1.0,-999.0,52,0.00,,,-99.99,,2013-08-30 16:43:00,
2013-08-30 09:53:00,83.0,64.0,29.93,SSE,150,1.0,-999.0,52,0.00,,,-99.99,,2013-08-30 16:53:00,
2013-08-30 10:42:00,85.0,66.0,29.94,ESE,110,2.0,-999.0,54,0.00,,,-99.99,,2013-08-30 17:42:00,
2013-08-30 10:52:00,85.0,66.0,29.94,ESE,110,2.0,-999.0,54,0.00,,,-99.99,,2013-08-30 17:52:00,
2013-08-30 11:42:00,87.0,65.0,29.94,SSW,210,4.0,-999.0,49,0.00,,,-99.99,,2013-08-30 18:42:00,
2013-08-30 11:52:00,87.0,65.0,29.94,SSW,210,4.0,-999.0,49,0.00,,,-99.99,,2013-08-30 18:52:00,
2013-08-30 12:42:00,88.0,66.0,29.94,WSW,250,5.0,-999.0,49,0.00,,,-99.99,,2013-08-30 19:42:00,
2013-08-30 12:53:00,88.0,66.0,29.94,WSW,250,5.0,-999.0,49,0.00,,,-99.99,,2013-08-30 19:53:00,
2013-08-30 13:43:00,87.0,68.0,29.93,WSW,250,2.0,-999.0,53,0.00,,,-99.99,,2013-08-30 20:43:00,
2013-08-30 13:52:00,87.0,68.0,29.93,WSW,250,2.0,-999.0,53,0.00,,,-99.99,,2013-08-30 20:52:00,
2013-08-30 13:54:00,88.0,68.0,29.91,WSW,250,4.0,-999.0,51,0.00,,,-99.99,,2013-08-30 20:54:00,
2013-08-30 14:44:00,88.0,68.0,29.91,WSW,250,4.0,-999.0,51,0.00,,,-99.99,,2013-08-30 21:44:00,
2013-08-30 15:43:00,89.0,70.0,29.90,SW,230,4.0,-999.0,53,0.00,,,-99.99,,2013-08-30 22:43:00,
2013-08-30 15:54:00,89.0,70.0,29.90,SW,230,4.0,-999.0,53,0.00,,,-99.99,,2013-08-30 22:54:00,
2013-08-30 16:22:00,88.0,70.0,29.88,WNW,290,4.0,-999.0,55,0.00,,,-99.99,,2013-08-30 23:22:00,
2013-08-30 16:33:00,88.0,70.0,29.88,WNW,290,4.0,-999.0,55,0.00,,,-99.99,,2013-08-30 23:33:00,
2013-08-30 16:42:00,88.0,70.0,29.88,WNW,290,4.0,-999.0,55,0.00,,,-99.99,,2013-08-30 23:42:00,
2013-08-30 16:53:00,88.0,70.0,29.88,WNW,290,4.0,-999.0,55,0.00,,,-99.99,,2013-08-30 23:53:00,
2013-08-30 17:22:00,90.0,71.0,29.88,WNW,290,6.0,-999.0,53,0.00,,,-99.99,,2013-08-31 00:22:00,
2013-08-30 17:32:00,90.0,71.0,29.88,WNW,290,6.0,-999.0,53,0.00,,,-99.99,,2013-08-31 00:32:00,
2013-08-30 17:42:00,90.0,71.0,29.88,WNW,290,6.0,-999.0,53,0.00,,,-99.99,,2013-08-31 00:42:00,
2013-08-30 17:52:00,90.0,71.0,29.88,WNW,290,6.0,-999.0,53,0.00,,,-99.99,,2013-08-31 00:52:00,
2013-08-30 18:42:00,88.0,70.0,29.88,West,260,2.0,-999.0,56,0.00,,,-99.99,,2013-08-31 01:42:00,
2013-08-30 18:52:00,88.0,70.0,29.88,West,260,2.0,-999.0,56,0.00,,,-99.99,,2013-08-31 01:52:00,
2013-08-30 19:42:00,82.0,68.0,29.88,West,260,1.0,-999.0,63,0.00,,,-99.99,,2013-08-31 02:42:00,
2013-08-30 19:52:00,82.0,68.0,29.88,West,260,1.0,-999.0,63,0.00,,,-99.99,,2013-08-31 02:52:00,
2013-08-30 19:54:00,79.0,69.0,29.89,North,0,0.0,-999.0,71,0.00,,,-99.99,,2013-08-31 02:54:00,
2013-08-30 20:44:00,79.0,69.0,29.89,North,0,0.0,-999.0,71,0.00,,,-99.99,,2013-08-31 03:44:00,
2013-08-30 20:54:00,79.0,70.0,29.90,West,260,1.0,-999.0,73,0.00,,,-99.99,,2013-08-31 03:54:00,
2013-08-30 21:44:00,79.0,70.0,29.90,West,260,1.0,-999.0,73,0.00,,,-99.99,,2013-08-31 04:44:00,
2013-08-30 22:42:00,78.0,69.0,29.91,North,0,0.0,-999.0,74,0.00,,,-99.99,,2013-08-31 05:42:00,
2013-08-30 22:52:00,78.0,69.0,29.91,North,0,0.0,-999.0,74,0.00,,,-99.99,,2013-08-31 05:52:00,
2013-08-30 23:42:00,77.0,69.0,29.91,North,0,0.0,-999.0,76,0.00,,,-99.99,,2013-08-31 06:42:00,
2013-08-30 23:52:00,77.0,69.0,29.91,North,0,0.0,-999.0,76,0.00,,,-99.99,,2013-08-31 06:52:00,